sensor_id;sensor_type;location;lat;lon;timestamp;pressure;altitude;pressure_sealevel;temperature;humidity
69221;BME280;56331;51.992;20.910;2023-03-05T00:01:10;99709.27;;;21.37;28.76
69221;BME280;56331;51.992;20.910;2023-03-05T00:03:37;99712.63;;;21.37;28.87
69221;BME280;56331;51.992;20.910;2023-03-05T00:06:05;99706.50;;;21.37;28.74
69221;BME280;56331;51.992;20.910;2023-03-05T00:08:32;99709.27;;;21.37;28.77
69221;BME280;56331;51.992;20.910;2023-03-05T00:11:02;99713.22;;;21.36;28.74
69221;BME280;56331;51.992;20.910;2023-03-05T00:13:29;99710.44;;;21.36;28.79
69221;BME280;56331;51.992;20.910;2023-03-05T00:15:56;99713.00;;;21.35;28.82
69221;BME280;56331;51.992;20.910;2023-03-05T00:18:23;99702.72;;;21.36;28.68
69221;BME280;56331;51.992;20.910;2023-03-05T00:20:50;99705.70;;;21.37;28.89
69221;BME280;56331;51.992;20.910;2023-03-05T00:23:16;99700.75;;;21.36;28.77
69221;BME280;56331;51.992;20.910;2023-03-05T00:25:45;99699.58;;;21.37;28.76
69221;BME280;56331;51.992;20.910;2023-03-05T00:28:13;99699.36;;;21.36;28.74
69221;BME280;56331;51.992;20.910;2023-03-05T00:30:39;99693.61;;;21.35;28.77
69221;BME280;56331;51.992;20.910;2023-03-05T00:33:06;99693.02;;;21.36;28.81
69221;BME280;56331;51.992;20.910;2023-03-05T00:35:45;99689.20;;;21.34;28.85
69221;BME280;56331;51.992;20.910;2023-03-05T00:38:12;99685.05;;;21.34;28.75
69221;BME280;56331;51.992;20.910;2023-03-05T00:40:40;99691.17;;;21.34;28.73
69221;BME280;56331;51.992;20.910;2023-03-05T00:43:07;99682.65;;;21.33;28.76
69221;BME280;56331;51.992;20.910;2023-03-05T00:45:36;99680.44;;;21.32;28.70
69221;BME280;56331;51.992;20.910;2023-03-05T00:48:03;99677.11;;;21.33;28.73
69221;BME280;56331;51.992;20.910;2023-03-05T00:50:32;99675.72;;;21.33;28.66
69221;BME280;56331;51.992;20.910;2023-03-05T00:52:58;99674.89;;;21.32;28.57
69221;BME280;56331;51.992;20.910;2023-03-05T00:55:25;99671.33;;;21.32;28.65
69221;BME280;56331;51.992;20.910;2023-03-05T00:57:51;99664.98;;;21.31;28.67
69221;BME280;56331;51.992;20.910;2023-03-05T01:00:18;99667.97;;;21.32;28.65
69221;BME280;56331;51.992;20.910;2023-03-05T01:02:45;99665.56;;;21.31;28.65
69221;BME280;56331;51.992;20.910;2023-03-05T01:05:13;99666.37;;;21.31;28.71
69221;BME280;56331;51.992;20.910;2023-03-05T01:07:40;99662.21;;;21.31;28.65
69221;BME280;56331;51.992;20.910;2023-03-05T01:10:09;99660.23;;;21.32;28.70
69221;BME280;56331;51.992;20.910;2023-03-05T01:12:36;99655.88;;;21.31;28.72
69221;BME280;56331;51.992;20.910;2023-03-05T01:15:04;99655.28;;;21.31;28.72
69221;BME280;56331;51.992;20.910;2023-03-05T01:17:31;99655.07;;;21.30;28.67
69221;BME280;56331;51.992;20.910;2023-03-05T01:19:57;99647.31;;;21.30;28.67
69221;BME280;56331;51.992;20.910;2023-03-05T01:22:23;99649.53;;;21.30;28.71
69221;BME280;56331;51.992;20.910;2023-03-05T01:24:50;99650.09;;;21.30;28.61
69221;BME280;56331;51.992;20.910;2023-03-05T01:27:18;99643.75;;;21.29;28.55
69221;BME280;56331;51.992;20.910;2023-03-05T01:29:47;99637.41;;;21.29;28.62
69221;BME280;56331;51.992;20.910;2023-03-05T01:32:13;99636.82;;;21.29;28.68
69221;BME280;56331;51.992;20.910;2023-03-05T01:34:40;99634.30;;;21.30;28.70
69221;BME280;56331;51.992;20.910;2023-03-05T01:37:07;99634.64;;;21.29;28.67
69221;BME280;56331;51.992;20.910;2023-03-05T01:39:37;99628.30;;;21.28;28.55
69221;BME280;56331;51.992;20.910;2023-03-05T01:42:03;99630.48;;;21.29;28.64
69221;BME280;56331;51.992;20.910;2023-03-05T01:44:31;99628.75;;;21.30;28.70
69221;BME280;56331;51.992;20.910;2023-03-05T01:46:58;99626.91;;;21.28;28.52
69221;BME280;56331;51.992;20.910;2023-03-05T01:49:35;99627.50;;;21.28;28.41
69221;BME280;56331;51.992;20.910;2023-03-05T01:52:09;99616.17;;;21.27;28.38
69221;BME280;56331;51.992;20.910;2023-03-05T01:54:42;99620.33;;;21.27;28.46
69221;BME280;56331;51.992;20.910;2023-03-05T01:57:16;99621.13;;;21.27;28.44
69221;BME280;56331;51.992;20.910;2023-03-05T01:59:45;99622.52;;;21.27;28.41
69221;BME280;56331;51.992;20.910;2023-03-05T02:02:12;99616.76;;;21.26;28.36
69221;BME280;56331;51.992;20.910;2023-03-05T02:04:51;99624.27;;;21.26;28.42
69221;BME280;56331;51.992;20.910;2023-03-05T02:07:19;99621.50;;;21.26;28.47
69221;BME280;56331;51.992;20.910;2023-03-05T02:09:46;99622.88;;;21.26;28.38
69221;BME280;56331;51.992;20.910;2023-03-05T02:12:13;99616.17;;;21.27;28.39
69221;BME280;56331;51.992;20.910;2023-03-05T02:14:42;99615.16;;;21.25;28.50
69221;BME280;56331;51.992;20.910;2023-03-05T02:17:10;99617.34;;;21.26;28.38
69221;BME280;56331;51.992;20.910;2023-03-05T02:19:55;99612.39;;;21.25;28.35
69221;BME280;56331;51.992;20.910;2023-03-05T02:22:20;99608.23;;;21.25;28.39
69221;BME280;56331;51.992;20.910;2023-03-05T02:24:49;99608.23;;;21.25;28.38
69221;BME280;56331;51.992;20.910;2023-03-05T02:27:16;99603.49;;;21.26;28.41
69221;BME280;56331;51.992;20.910;2023-03-05T02:29:45;99608.23;;;21.25;28.35
69221;BME280;56331;51.992;20.910;2023-03-05T02:32:12;99607.99;;;21.24;28.29
69221;BME280;56331;51.992;20.910;2023-03-05T02:34:45;99601.86;;;21.25;28.41
69221;BME280;56331;51.992;20.910;2023-03-05T02:37:11;99599.09;;;21.25;28.39
69221;BME280;56331;51.992;20.910;2023-03-05T02:39:38;99598.54;;;21.25;28.26
69221;BME280;56331;51.992;20.910;2023-03-05T02:42:04;99599.09;;;21.25;28.32
69221;BME280;56331;51.992;20.910;2023-03-05T02:44:32;99601.86;;;21.25;28.23
69221;BME280;56331;51.992;20.910;2023-03-05T02:46:58;99602.69;;;21.25;28.36
69221;BME280;56331;51.992;20.910;2023-03-05T02:49:26;99601.06;;;21.24;28.61
69221;BME280;56331;51.992;20.910;2023-03-05T02:51:54;99598.54;;;21.25;28.49
69221;BME280;56331;51.992;20.910;2023-03-05T02:54:21;99594.94;;;21.25;28.60
69221;BME280;56331;51.992;20.910;2023-03-05T02:56:47;99594.14;;;21.24;28.56
69221;BME280;56331;51.992;20.910;2023-03-05T02:59:14;99594.94;;;21.25;28.60
69221;BME280;56331;51.992;20.910;2023-03-05T03:01:45;99592.17;;;21.25;28.63
69221;BME280;56331;51.992;20.910;2023-03-05T03:04:08;99586.62;;;21.25;28.43
69221;BME280;56331;51.992;20.910;2023-03-05T03:06:35;99584.10;;;21.26;28.05
69221;BME280;56331;51.992;20.910;2023-03-05T03:09:01;99581.55;;;21.27;27.77
69221;BME280;56331;51.992;20.910;2023-03-05T03:11:28;99583.97;;;21.28;27.52
69221;BME280;56331;51.992;20.910;2023-03-05T03:13:54;99577.84;;;21.29;27.29
69221;BME280;56331;51.992;20.910;2023-03-05T03:16:21;99574.48;;;21.29;27.12
69221;BME280;56331;51.992;20.910;2023-03-05T03:18:47;99573.69;;;21.29;26.93
69221;BME280;56331;51.992;20.910;2023-03-05T03:21:19;99573.69;;;21.29;26.83
69221;BME280;56331;51.992;20.910;2023-03-05T03:23:48;99570.92;;;21.29;26.71
69221;BME280;56331;51.992;20.910;2023-03-05T03:26:15;99566.18;;;21.29;26.58
69221;BME280;56331;51.992;20.910;2023-03-05T03:28:42;99561.81;;;21.28;26.46
69221;BME280;56331;51.992;20.910;2023-03-05T03:31:09;99560.42;;;21.28;26.41
69221;BME280;56331;51.992;20.910;2023-03-05T03:33:35;99564.58;;;21.28;26.23
69221;BME280;56331;51.992;20.910;2023-03-05T03:36:03;99561.81;;;21.28;26.23
69221;BME280;56331;51.992;20.910;2023-03-05T03:38:32;99566.77;;;21.29;26.10
69221;BME280;56331;51.992;20.910;2023-03-05T03:40:58;99564.58;;;21.28;26.02
69221;BME280;56331;51.992;20.910;2023-03-05T03:43:25;99559.84;;;21.29;25.98
69221;BME280;56331;51.992;20.910;2023-03-05T03:45:51;99555.47;;;21.28;25.89
69221;BME280;56331;51.992;20.910;2023-03-05T03:48:17;99555.47;;;21.28;25.79
69221;BME280;56331;51.992;20.910;2023-03-05T03:50:44;99541.63;;;21.28;25.73
69221;BME280;56331;51.992;20.910;2023-03-05T03:53:10;99543.00;;;21.28;25.65
69221;BME280;56331;51.992;20.910;2023-03-05T03:55:42;99546.58;;;21.28;25.68
69221;BME280;56331;51.992;20.910;2023-03-05T03:58:10;99545.77;;;21.28;25.52
69221;BME280;56331;51.992;20.910;2023-03-05T04:00:38;99543.80;;;21.28;25.46
69221;BME280;56331;51.992;20.910;2023-03-05T04:03:08;99539.41;;;21.27;25.40
69221;BME280;56331;51.992;20.910;2023-03-05T04:05:34;99538.02;;;21.27;25.98
69221;BME280;56331;51.992;20.910;2023-03-05T04:08:00;99541.17;;;21.26;26.31
69221;BME280;56331;51.992;20.910;2023-03-05T04:10:28;99539.78;;;21.26;26.24
69221;BME280;56331;51.992;20.910;2023-03-05T04:12:54;99528.45;;;21.25;26.36
69221;BME280;56331;51.992;20.910;2023-03-05T04:15:21;99531.02;;;21.24;26.42
69221;BME280;56331;51.992;20.910;2023-03-05T04:17:47;99519.94;;;21.24;26.53
69221;BME280;56331;51.992;20.910;2023-03-05T04:20:28;99526.65;;;21.23;26.50
69221;BME280;56331;51.992;20.910;2023-03-05T04:22:54;99525.85;;;21.22;26.58
69221;BME280;56331;51.992;20.910;2023-03-05T04:25:21;99513.73;;;21.20;26.50
69221;BME280;56331;51.992;20.910;2023-03-05T04:27:47;99515.91;;;21.21;26.54
69221;BME280;56331;51.992;20.910;2023-03-05T04:30:14;99518.47;;;21.20;26.53
69221;BME280;56331;51.992;20.910;2023-03-05T04:32:40;99511.55;;;21.20;26.58
69221;BME280;56331;51.992;20.910;2023-03-05T04:35:08;99511.55;;;21.20;26.70
69221;BME280;56331;51.992;20.910;2023-03-05T04:37:34;99508.91;;;21.17;26.53
69221;BME280;56331;51.992;20.910;2023-03-05T04:40:01;99503.50;;;21.15;26.40
69221;BME280;56331;51.992;20.910;2023-03-05T04:42:29;99505.09;;;21.16;26.39
69221;BME280;56331;51.992;20.910;2023-03-05T04:44:55;99503.50;;;21.15;26.28
69221;BME280;56331;51.992;20.910;2023-03-05T04:47:22;99507.06;;;21.15;26.36
69221;BME280;56331;51.992;20.910;2023-03-05T04:49:51;99504.09;;;21.14;26.39
69221;BME280;56331;51.992;20.910;2023-03-05T04:52:17;99503.50;;;21.15;26.40
69221;BME280;56331;51.992;20.910;2023-03-05T04:54:44;99492.42;;;21.15;26.42
69221;BME280;56331;51.992;20.910;2023-03-05T04:57:10;99499.11;;;21.14;26.48
69221;BME280;56331;51.992;20.910;2023-03-05T04:59:37;99488.03;;;21.14;26.43
69221;BME280;56331;51.992;20.910;2023-03-05T05:02:03;99485.84;;;21.13;26.49
69221;BME280;56331;51.992;20.910;2023-03-05T05:04:30;99481.10;;;21.14;26.63
69221;BME280;56331;51.992;20.910;2023-03-05T05:06:57;99481.93;;;21.14;26.53
69221;BME280;56331;51.992;20.910;2023-03-05T05:09:24;99484.70;;;21.14;26.43
69221;BME280;56331;51.992;20.910;2023-03-05T05:11:51;99479.72;;;21.14;26.49
69221;BME280;56331;51.992;20.910;2023-03-05T05:14:17;99476.73;;;21.13;26.50
69221;BME280;56331;51.992;20.910;2023-03-05T05:16:44;99480.89;;;21.13;26.52
69221;BME280;56331;51.992;20.910;2023-03-05T05:19:11;99480.89;;;21.13;26.56
69221;BME280;56331;51.992;20.910;2023-03-05T05:21:37;99485.05;;;21.13;26.54
69221;BME280;56331;51.992;20.910;2023-03-05T05:24:04;99481.69;;;21.13;26.56
69221;BME280;56331;51.992;20.910;2023-03-05T05:26:31;99477.53;;;21.13;26.61
69221;BME280;56331;51.992;20.910;2023-03-05T05:28:57;99478.92;;;21.13;26.60
69221;BME280;56331;51.992;20.910;2023-03-05T05:31:24;99476.73;;;21.13;26.53
69221;BME280;56331;51.992;20.910;2023-03-05T05:33:51;99482.48;;;21.14;26.53
69221;BME280;56331;51.992;20.910;2023-03-05T05:36:17;99478.13;;;21.13;26.56
69221;BME280;56331;51.992;20.910;2023-03-05T05:38:47;99481.10;;;21.14;26.63
69221;BME280;56331;51.992;20.910;2023-03-05T05:41:17;99482.48;;;21.14;26.53
69221;BME280;56331;51.992;20.910;2023-03-05T05:43:44;99481.69;;;21.13;26.60
69221;BME280;56331;51.992;20.910;2023-03-05T05:46:14;99477.53;;;21.13;26.65
69221;BME280;56331;51.992;20.910;2023-03-05T05:48:41;99472.00;;;21.13;26.71
69221;BME280;56331;51.992;20.910;2023-03-05T05:51:17;99480.09;;;21.12;26.65
69221;BME280;56331;51.992;20.910;2023-03-05T05:53:47;99472.92;;;21.11;26.79
69221;BME280;56331;51.992;20.910;2023-03-05T05:56:14;99475.35;;;21.13;26.79
69221;BME280;56331;51.992;20.910;2023-03-05T05:58:42;99476.52;;;21.12;26.88
69221;BME280;56331;51.992;20.910;2023-03-05T06:01:23;99476.52;;;21.12;27.00
69221;BME280;56331;51.992;20.910;2023-03-05T06:03:50;99475.94;;;21.12;26.98
69221;BME280;56331;51.992;20.910;2023-03-05T06:06:19;99472.80;;;21.14;26.83
69221;BME280;56331;51.992;20.910;2023-03-05T06:08:50;99474.77;;;21.13;26.71
69221;BME280;56331;51.992;20.910;2023-03-05T06:11:17;99473.03;;;21.15;26.56
69221;BME280;56331;51.992;20.910;2023-03-05T06:13:46;99469.68;;;21.15;26.48
69221;BME280;56331;51.992;20.910;2023-03-05T06:16:15;99460.57;;;21.15;26.45
69221;BME280;56331;51.992;20.910;2023-03-05T06:18:42;99467.13;;;21.16;26.48
69221;BME280;56331;51.992;20.910;2023-03-05T06:21:11;99468.51;;;21.16;26.48
69221;BME280;56331;51.992;20.910;2023-03-05T06:23:38;99462.97;;;21.16;26.52
69221;BME280;56331;51.992;20.910;2023-03-05T06:26:06;99460.20;;;21.16;26.51
69221;BME280;56331;51.992;20.910;2023-03-05T06:28:33;99459.85;;;21.18;26.47
69221;BME280;56331;51.992;20.910;2023-03-05T06:31:09;99461.23;;;21.18;26.47
69221;BME280;56331;51.992;20.910;2023-03-05T06:33:36;99457.08;;;21.18;26.42
69221;BME280;56331;51.992;20.910;2023-03-05T06:36:14;99458.13;;;21.19;26.34
69221;BME280;56331;51.992;20.910;2023-03-05T06:38:38;99458.67;;;21.19;26.28
69221;BME280;56331;51.992;20.910;2023-03-05T06:41:11;99455.11;;;21.18;26.20
69221;BME280;56331;51.992;20.910;2023-03-05T06:43:40;99454.31;;;21.18;26.19
69221;BME280;56331;51.992;20.910;2023-03-05T06:46:21;99451.75;;;21.19;26.21
69221;BME280;56331;51.992;20.910;2023-03-05T06:48:47;99441.84;;;21.18;26.25
69221;BME280;56331;51.992;20.910;2023-03-05T06:51:18;99444.03;;;21.18;26.32
69221;BME280;56331;51.992;20.910;2023-03-05T06:53:45;99448.98;;;21.19;26.26
69221;BME280;56331;51.992;20.910;2023-03-05T06:56:12;99447.59;;;21.19;26.22
69221;BME280;56331;51.992;20.910;2023-03-05T06:58:41;99445.66;;;21.19;26.21
69221;BME280;56331;51.992;20.910;2023-03-05T07:01:10;99438.15;;;21.20;26.25
69221;BME280;56331;51.992;20.910;2023-03-05T07:03:38;99430.05;;;21.21;26.30
69221;BME280;56331;51.992;20.910;2023-03-05T07:06:08;99423.13;;;21.21;26.26
69221;BME280;56331;51.992;20.910;2023-03-05T07:08:35;99416.44;;;21.22;26.29
69221;BME280;56331;51.992;20.910;2023-03-05T07:11:02;99406.50;;;21.21;26.27
69221;BME280;56331;51.992;20.910;2023-03-05T07:13:30;99395.67;;;21.22;26.29
69221;BME280;56331;51.992;20.910;2023-03-05T07:15:57;99390.13;;;21.22;26.26
69221;BME280;56331;51.992;20.910;2023-03-05T07:18:26;99370.16;;;21.23;26.25
69221;BME280;56331;51.992;20.910;2023-03-05T07:20:52;99361.84;;;21.23;26.27
69221;BME280;56331;51.992;20.910;2023-03-05T07:23:25;99370.95;;;21.23;26.20
69221;BME280;56331;51.992;20.910;2023-03-05T07:25:53;99387.57;;;21.23;26.20
69221;BME280;56331;51.992;20.910;2023-03-05T07:28:19;99391.72;;;21.23;26.18
69221;BME280;56331;51.992;20.910;2023-03-05T07:30:58;99398.65;;;21.23;26.20
69221;BME280;56331;51.992;20.910;2023-03-05T07:33:22;99388.37;;;21.24;26.19
69221;BME280;56331;51.992;20.910;2023-03-05T07:35:48;99386.39;;;21.24;26.23
69221;BME280;56331;51.992;20.910;2023-03-05T07:38:15;99390.34;;;21.23;26.13
69221;BME280;56331;51.992;20.910;2023-03-05T07:40:41;99386.53;;;21.22;26.20
69221;BME280;56331;51.992;20.910;2023-03-05T07:43:08;99384.80;;;21.23;26.22
69221;BME280;56331;51.992;20.910;2023-03-05T07:45:39;99384.21;;;21.24;26.27
69221;BME280;56331;51.992;20.910;2023-03-05T07:48:16;99388.58;;;21.25;26.25
69221;BME280;56331;51.992;20.910;2023-03-05T07:50:45;99384.00;;;21.23;26.20
69221;BME280;56331;51.992;20.910;2023-03-05T07:53:14;99381.82;;;21.22;26.21
69221;BME280;56331;51.992;20.910;2023-03-05T07:55:46;99379.84;;;21.23;26.26
69221;BME280;56331;51.992;20.910;2023-03-05T07:58:13;99386.77;;;21.23;26.30
69221;BME280;56331;51.992;20.910;2023-03-05T08:00:41;99382.62;;;21.23;26.34
69221;BME280;56331;51.992;20.910;2023-03-05T08:03:11;99376.48;;;21.23;26.36
69221;BME280;56331;51.992;20.910;2023-03-05T08:05:44;99378.67;;;21.24;26.33
69221;BME280;56331;51.992;20.910;2023-03-05T08:08:11;99383.20;;;21.22;26.34
69221;BME280;56331;51.992;20.910;2023-03-05T08:10:38;99383.76;;;21.22;26.36
69221;BME280;56331;51.992;20.910;2023-03-05T08:13:05;99382.03;;;21.23;26.31
69221;BME280;56331;51.992;20.910;2023-03-05T08:15:31;99383.20;;;21.22;26.31
69221;BME280;56331;51.992;20.910;2023-03-05T08:17:59;99384.59;;;21.22;26.30
69221;BME280;56331;51.992;20.910;2023-03-05T08:20:25;99385.73;;;21.21;26.21
69221;BME280;56331;51.992;20.910;2023-03-05T08:22:52;99389.30;;;21.22;26.21
69221;BME280;56331;51.992;20.910;2023-03-05T08:25:21;99385.14;;;21.22;26.29
69221;BME280;56331;51.992;20.910;2023-03-05T08:27:47;99387.12;;;21.21;26.34
69221;BME280;56331;51.992;20.910;2023-03-05T08:30:18;99384.14;;;21.20;26.30
69221;BME280;56331;51.992;20.910;2023-03-05T08:32:48;99389.30;;;21.22;26.29
69221;BME280;56331;51.992;20.910;2023-03-05T08:35:14;99386.66;;;21.19;26.79
69221;BME280;56331;51.992;20.910;2023-03-05T08:37:41;99387.05;;;21.17;27.03
69221;BME280;56331;51.992;20.910;2023-03-05T08:40:09;99378.50;;;21.16;27.25
69221;BME280;56331;51.992;20.910;2023-03-05T08:42:36;99377.11;;;21.16;27.39
69221;BME280;56331;51.992;20.910;2023-03-05T08:45:02;99380.47;;;21.16;27.57
69221;BME280;56331;51.992;20.910;2023-03-05T08:47:29;99382.44;;;21.15;27.80
69221;BME280;56331;51.992;20.910;2023-03-05T08:49:55;99380.47;;;21.16;28.23
69221;BME280;56331;51.992;20.910;2023-03-05T08:52:22;99378.88;;;21.15;28.66
69221;BME280;56331;51.992;20.910;2023-03-05T08:54:51;99380.02;;;21.14;29.02
69221;BME280;56331;51.992;20.910;2023-03-05T08:57:17;99378.63;;;21.14;29.17
69221;BME280;56331;51.992;20.910;2023-03-05T08:59:46;99378.08;;;21.14;29.39
69221;BME280;56331;51.992;20.910;2023-03-05T09:02:12;99374.48;;;21.14;29.45
69221;BME280;56331;51.992;20.910;2023-03-05T09:04:39;99375.86;;;21.14;29.63
69221;BME280;56331;51.992;20.910;2023-03-05T09:07:08;99370.91;;;21.13;29.66
69221;BME280;56331;51.992;20.910;2023-03-05T09:09:38;99372.53;;;21.14;29.56
69221;BME280;56331;51.992;20.910;2023-03-05T09:12:05;99367.00;;;21.14;29.56
69221;BME280;56331;51.992;20.910;2023-03-05T09:14:32;99367.20;;;21.15;29.49
69221;BME280;56331;51.992;20.910;2023-03-05T09:16:58;99360.63;;;21.14;29.59
69221;BME280;56331;51.992;20.910;2023-03-05T09:19:24;99367.00;;;21.14;29.76
69221;BME280;56331;51.992;20.910;2023-03-05T09:21:52;99361.46;;;21.14;29.82
69221;BME280;56331;51.992;20.910;2023-03-05T09:24:19;99360.28;;;21.15;30.00
69221;BME280;56331;51.992;20.910;2023-03-05T09:26:45;99360.28;;;21.15;29.98
69221;BME280;56331;51.992;20.910;2023-03-05T09:29:13;99367.20;;;21.15;30.10
69221;BME280;56331;51.992;20.910;2023-03-05T09:31:39;99362.25;;;21.15;30.31
69221;BME280;56331;51.992;20.910;2023-03-05T09:34:06;99358.90;;;21.15;29.91
69221;BME280;56331;51.992;20.910;2023-03-05T09:36:37;99358.55;;;21.17;29.44
69221;BME280;56331;51.992;20.910;2023-03-05T09:39:03;99354.61;;;21.18;29.16
69221;BME280;56331;51.992;20.910;2023-03-05T09:45:11;99357.83;;;21.20;28.96
69221;BME280;56331;51.992;20.910;2023-03-05T09:47:52;99362.98;;;21.22;28.84
69221;BME280;56331;51.992;20.910;2023-03-05T09:50:32;99357.10;;;21.23;28.53
69221;BME280;56331;51.992;20.910;2023-03-05T09:55:51;99346.95;;;21.21;28.31
69221;BME280;56331;51.992;20.910;2023-03-05T10:09:20;99349.00;;;21.24;27.38
69221;BME280;56331;51.992;20.910;2023-03-05T10:11:58;99349.59;;;21.24;27.23
69221;BME280;56331;51.992;20.910;2023-03-05T10:14:31;99346.81;;;21.24;27.09
69221;BME280;56331;51.992;20.910;2023-03-05T10:19:40;99345.64;;;21.25;26.90
69221;BME280;56331;51.992;20.910;2023-03-05T10:27:07;99341.28;;;21.24;26.59
69221;BME280;56331;51.992;20.910;2023-03-05T10:32:30;99337.13;;;21.24;26.43
69221;BME280;56331;51.992;20.910;2023-03-05T10:35:11;99332.97;;;21.24;26.90
69221;BME280;56331;51.992;20.910;2023-03-05T10:40:54;99320.64;;;21.21;27.36
69221;BME280;56331;51.992;20.910;2023-03-05T10:46:20;99321.23;;;21.20;27.67
69221;BME280;56331;51.992;20.910;2023-03-05T10:48:56;99319.64;;;21.19;27.68
69221;BME280;56331;51.992;20.910;2023-03-05T10:51:39;99319.05;;;21.20;27.86
69221;BME280;56331;51.992;20.910;2023-03-05T10:56:42;99316.04;;;21.19;28.03
69221;BME280;56331;51.992;20.910;2023-03-05T10:59:08;99316.04;;;21.19;28.11
69221;BME280;56331;51.992;20.910;2023-03-05T11:01:35;99309.36;;;21.20;28.40
69221;BME280;56331;51.992;20.910;2023-03-05T11:04:06;99315.11;;;21.21;28.66
69221;BME280;56331;51.992;20.910;2023-03-05T11:09:27;99307.97;;;21.20;28.74
69221;BME280;56331;51.992;20.910;2023-03-05T11:14:28;99295.51;;;21.20;28.77
69221;BME280;56331;51.992;20.910;2023-03-05T11:16:56;99290.56;;;21.19;29.01
69221;BME280;56331;51.992;20.910;2023-03-05T11:19:31;99293.53;;;21.20;29.15
69221;BME280;56331;51.992;20.910;2023-03-05T11:22:20;99293.53;;;21.20;29.29
69221;BME280;56331;51.992;20.910;2023-03-05T11:30:28;99288.20;;;21.22;29.50
69221;BME280;56331;51.992;20.910;2023-03-05T11:33:17;99281.07;;;21.20;29.47
69221;BME280;56331;51.992;20.910;2023-03-05T11:35:46;99281.28;;;21.22;29.54
69221;BME280;56331;51.992;20.910;2023-03-05T11:38:24;99282.11;;;21.22;29.71
69221;BME280;56331;51.992;20.910;2023-03-05T11:40:55;99276.56;;;21.22;29.72
69221;BME280;56331;51.992;20.910;2023-03-05T11:43:24;99275.39;;;21.23;29.87
69221;BME280;56331;51.992;20.910;2023-03-05T11:46:00;99273.80;;;21.22;29.91
69221;BME280;56331;51.992;20.910;2023-03-05T11:48:37;99273.20;;;21.23;30.15
69221;BME280;56331;51.992;20.910;2023-03-05T11:51:30;99264.11;;;21.22;30.26
69221;BME280;56331;51.992;20.910;2023-03-05T11:53:41;99264.90;;;21.23;30.61
69221;BME280;56331;51.992;20.910;2023-03-05T11:56:29;99260.16;;;21.23;31.47
69221;BME280;56331;51.992;20.910;2023-03-05T12:01:45;99253.23;;;21.23;32.08
69221;BME280;56331;51.992;20.910;2023-03-05T12:04:12;99254.03;;;21.24;31.97
69221;BME280;56331;51.992;20.910;2023-03-05T12:06:51;99251.27;;;21.24;31.76
69221;BME280;56331;51.992;20.910;2023-03-05T12:09:28;99244.55;;;21.25;31.70
69221;BME280;56331;51.992;20.910;2023-03-05T12:11:59;99246.75;;;21.25;31.60
69221;BME280;56331;51.992;20.910;2023-03-05T12:17:13;99237.06;;;21.25;31.50
69221;BME280;56331;51.992;20.910;2023-03-05T12:19:57;99239.24;;;21.26;31.51
69221;BME280;56331;51.992;20.910;2023-03-05T12:22:30;99231.52;;;21.25;31.50
69221;BME280;56331;51.992;20.910;2023-03-05T12:24:55;99235.88;;;21.26;31.46
69221;BME280;56331;51.992;20.910;2023-03-05T12:27:34;99234.84;;;21.25;31.36
69221;BME280;56331;51.992;20.910;2023-03-05T12:30:02;99232.67;;;21.24;31.36
69221;BME280;56331;51.992;20.910;2023-03-05T12:37:58;99235.67;;;21.25;31.20
69221;BME280;56331;51.992;20.910;2023-03-05T12:40:34;99228.52;;;21.24;31.19
69221;BME280;56331;51.992;20.910;2023-03-05T12:43:05;99222.38;;;21.25;31.29
69221;BME280;56331;51.992;20.910;2023-03-05T12:45:37;99225.98;;;21.25;31.27
69221;BME280;56331;51.992;20.910;2023-03-05T12:53:14;99214.66;;;21.24;31.08
69221;BME280;56331;51.992;20.910;2023-03-05T12:56:02;99221.59;;;21.24;31.00
69221;BME280;56331;51.992;20.910;2023-03-05T12:58:49;99215.84;;;21.23;30.81
69221;BME280;56331;51.992;20.910;2023-03-05T13:04:05;99208.92;;;21.23;30.99
69221;BME280;56331;51.992;20.910;2023-03-05T13:06:38;99210.09;;;21.22;31.31
69221;BME280;56331;51.992;20.910;2023-03-05T13:09:33;99213.42;;;21.22;31.51
69221;BME280;56331;51.992;20.910;2023-03-05T13:11:49;99206.50;;;21.22;31.77
69221;BME280;56331;51.992;20.910;2023-03-05T13:14:34;99209.86;;;21.21;32.06
69221;BME280;56331;51.992;20.910;2023-03-05T13:17:00;99210.66;;;21.22;32.13
69221;BME280;56331;51.992;20.910;2023-03-05T13:19:30;99208.47;;;21.21;32.22
69221;BME280;56331;51.992;20.910;2023-03-05T13:22:03;99204.31;;;21.21;32.39
69221;BME280;56331;51.992;20.910;2023-03-05T13:24:30;99202.14;;;21.20;32.38
69221;BME280;56331;51.992;20.910;2023-03-05T13:26:56;99204.91;;;21.20;32.57
69221;BME280;56331;51.992;20.910;2023-03-05T13:29:25;99203.52;;;21.20;32.88
69221;BME280;56331;51.992;20.910;2023-03-05T13:32:01;99204.31;;;21.21;33.04
69221;BME280;56331;51.992;20.910;2023-03-05T13:34:32;99204.31;;;21.21;33.10
69221;BME280;56331;51.992;20.910;2023-03-05T13:37:03;99198.78;;;21.21;33.08
69221;BME280;56331;51.992;20.910;2023-03-05T13:44:55;99199.58;;;21.22;33.30
69221;BME280;56331;51.992;20.910;2023-03-05T13:47:26;99193.48;;;21.22;33.19
69221;BME280;56331;51.992;20.910;2023-03-05T13:50:05;99193.83;;;21.20;33.21
69221;BME280;56331;51.992;20.910;2023-03-05T13:52:55;99196.01;;;21.21;33.17
69221;BME280;56331;51.992;20.910;2023-03-05T13:55:23;99191.86;;;21.21;33.25
69221;BME280;56331;51.992;20.910;2023-03-05T13:57:51;99189.09;;;21.21;33.30
69221;BME280;56331;51.992;20.910;2023-03-05T14:00:35;99188.08;;;21.19;33.21
69221;BME280;56331;51.992;20.910;2023-03-05T14:03:27;99192.45;;;21.20;33.28
69221;BME280;56331;51.992;20.910;2023-03-05T14:05:54;99186.91;;;21.20;33.23
69221;BME280;56331;51.992;20.910;2023-03-05T14:08:23;99189.09;;;21.21;33.32
69221;BME280;56331;51.992;20.910;2023-03-05T14:10:52;99178.59;;;21.20;33.24
69221;BME280;56331;51.992;20.910;2023-03-05T14:13:27;99182.75;;;21.20;33.13